Knights Landing, California
Current Conditions -  °F | °C
As of 7:53 AM on Friday 31 Oct 2014 (Local Time) from KSMF Reporting Station
Broken Clouds Broken Clouds  
Wind Chill: 59°   Ceiling: 14000
Heat Index: 59°   Visibility: 10mi
Dew Point: 54°   Wind: 7mph
Humidity: 83%   Direction: 220°SW
Pressure: 29.85"   Gusts: NA
Location:  38.8°N, 121.72°W
Report Text: KSMF 311453Z 22006KT 10SM FEW031 BKN140 15/12 A2985 RMK AO2 SLP106 T01500122 55007
Loading
Personal Weather Stations






























Interactive Weather Map
Tropical Storm Tracking
New forecast layout! Learn more

10-Day Weather Forecast

Advertisements
Track Severe Weather on mobile